Time;durP1;ratioP1;P1;durP2;ratioP2;P2;SDS_P1;SDS_P2;PMS_P1;PMS_P2;Temp;Humidity;BMP_temperature;BMP_pressure;BME280_temperature;BME280_humidity;BME280_pressure;Samples;Min_cycle;Max_cycle;Signal;HPM_P1;HPM_P2
2023/09/24 00:02:06;;;;;;;2.53;1.70;;;11.40;99.90;;;;;;5051461;28;20551;-70
2023/09/24 00:04:32;;;;;;;2.80;1.43;;;11.40;99.90;;;;;;5033826;28;20480;-70
2023/09/24 00:06:58;;;;;;;3.10;1.40;;;11.40;99.90;;;;;;5050565;28;20195;-70
2023/09/24 00:09:23;;;;;;;1.30;1.13;;;11.30;99.90;;;;;;5051756;28;20735;-70
2023/09/24 00:11:49;;;;;;;2.60;1.40;;;11.30;99.90;;;;;;5051742;28;20197;-70
2023/09/24 00:14:14;;;;;;;3.07;1.20;;;11.30;99.90;;;;;;5050199;28;20226;-70
2023/09/24 00:16:40;;;;;;;3.17;1.53;;;11.40;99.90;;;;;;5051896;28;20178;-70
2023/09/24 00:19:06;;;;;;;3.00;1.67;;;11.40;99.90;;;;;;5051559;28;20187;-70
2023/09/24 00:21:32;;;;;;;1.57;1.47;;;11.40;99.90;;;;;;5051677;28;20681;-70
2023/09/24 00:23:58;;;;;;;3.83;1.77;;;11.40;99.90;;;;;;5050275;28;20469;-70
2023/09/24 00:26:27;;;;;;;2.23;1.43;;;11.40;99.90;;;;;;5051495;28;20179;-70
2023/09/24 00:28:52;;;;;;;1.83;1.53;;;11.40;99.90;;;;;;5051401;28;20421;-70
2023/09/24 00:31:18;;;;;;;3.53;1.50;;;11.40;99.90;;;;;;5051392;28;20456;-70
2023/09/24 00:33:43;;;;;;;2.57;2.00;;;11.30;99.90;;;;;;5051406;28;20195;-70
2023/09/24 00:36:09;;;;;;;4.20;1.60;;;11.30;99.90;;;;;;5051412;28;20187;-70
2023/09/24 00:38:37;;;;;;;1.80;1.43;;;11.20;99.90;;;;;;5051460;28;20236;-70
2023/09/24 00:41:03;;;;;;;4.23;1.80;;;11.20;99.90;;;;;;5050025;28;20217;-70
2023/09/24 00:43:32;;;;;;;1.87;1.57;;;11.10;99.90;;;;;;5033554;28;20786;-70
2023/09/24 00:46:00;;;;;;;5.90;1.50;;;10.90;99.90;;;;;;5051257;28;20192;-70
2023/09/24 00:48:29;;;;;;;3.83;1.60;;;11.00;99.90;;;;;;5051249;28;20425;-70
2023/09/24 00:50:57;;;;;;;1.50;1.40;;;11.00;99.90;;;;;;5051173;28;20925;-70
2023/09/24 00:53:27;;;;;;;8.33;1.27;;;11.00;99.90;;;;;;5051168;28;20425;-70
2023/09/24 00:55:53;;;;;;;2.03;1.40;;;11.00;99.90;;;;;;5050998;28;20548;-70
2023/09/24 00:58:19;;;;;;;3.00;1.80;;;10.80;99.90;;;;;;5051046;28;20418;-70
2023/09/24 01:00:46;;;;;;;2.10;1.47;;;10.80;99.90;;;;;;5051042;28;20430;-70
2023/09/24 01:03:14;;;;;;;2.13;1.73;;;10.80;99.90;;;;;;5051135;28;20417;-70
2023/09/24 01:05:40;;;;;;;2.70;1.87;;;10.70;99.90;;;;;;5049740;28;20438;-70
2023/09/24 01:08:06;;;;;;;4.30;1.37;;;10.70;99.90;;;;;;5049859;28;20968;-70
2023/09/24 01:10:32;;;;;;;7.43;1.70;;;10.70;99.90;;;;;;5051045;28;20506;-70
2023/09/24 01:13:04;;;;;;;2.70;1.57;;;10.60;99.90;;;;;;5050820;28;20267;-70
2023/09/24 01:15:31;;;;;;;2.00;1.27;;;10.50;99.90;;;;;;5053631;28;20207;-70
2023/09/24 01:17:57;;;;;;;4.20;1.77;;;10.50;99.90;;;;;;5055011;28;20432;-70
2023/09/24 01:20:24;;;;;;;2.50;1.30;;;10.40;99.90;;;;;;5054929;28;20422;-70
2023/09/24 01:22:51;;;;;;;1.93;1.40;;;10.30;99.90;;;;;;5054925;28;20472;-70
2023/09/24 01:25:18;;;;;;;1.50;1.40;;;10.30;99.90;;;;;;5054833;28;20444;-70
2023/09/24 01:27:45;;;;;;;1.83;1.43;;;10.30;99.90;;;;;;5054839;28;20416;-70
2023/09/24 01:30:12;;;;;;;4.50;1.20;;;10.20;99.90;;;;;;5054788;28;20923;-70
2023/09/24 01:32:40;;;;;;;4.73;1.93;;;10.10;99.90;;;;;;5054720;28;20418;-70
2023/09/24 01:35:06;;;;;;;5.30;1.97;;;10.10;99.90;;;;;;5037005;28;20453;-69
2023/09/24 01:37:34;;;;;;;2.10;1.67;;;10.10;99.90;;;;;;5054556;28;20442;-70
2023/09/24 01:40:18;;;;;;;4.90;1.50;;;9.90;99.90;;;;;;5054563;28;20787;-70
2023/09/24 01:42:45;;;;;;;3.00;1.73;;;9.80;99.90;;;;;;5054540;28;20460;-70
2023/09/24 01:45:11;;;;;;;2.77;1.70;;;9.80;99.90;;;;;;5054404;28;20436;-69
2023/09/24 01:47:37;;;;;;;7.30;1.90;;;9.80;99.90;;;;;;5036505;28;20446;-70
2023/09/24 01:50:06;;;;;;;3.10;1.40;;;9.70;99.90;;;;;;5054381;28;20652;-70
2023/09/24 01:52:34;;;;;;;3.60;1.33;;;9.70;99.90;;;;;;5054528;28;20451;-70
2023/09/24 01:54:59;;;;;;;3.43;1.33;;;9.80;99.90;;;;;;5054224;28;20451;-69
2023/09/24 01:57:25;;;;;;;4.50;1.30;;;9.80;99.90;;;;;;5052709;28;20550;-70
2023/09/24 01:59:50;;;;;;;6.83;1.70;;;9.80;99.90;;;;;;5054211;28;20293;-70
2023/09/24 02:02:16;;;;;;;2.13;1.40;;;9.80;99.90;;;;;;5052892;28;20217;-70
2023/09/24 02:04:41;;;;;;;2.27;1.70;;;9.60;99.90;;;;;;5052907;28;20697;-70
2023/09/24 02:07:08;;;;;;;4.30;1.33;;;9.50;99.90;;;;;;5054162;28;20191;-70
2023/09/24 02:09:35;;;;;;;3.10;1.57;;;9.60;99.90;;;;;;5054094;28;20193;-70
2023/09/24 02:12:01;;;;;;;2.03;1.60;;;9.60;99.90;;;;;;5054026;28;20440;-70
2023/09/24 02:14:26;;;;;;;3.77;1.87;;;9.60;99.90;;;;;;5053811;28;20868;-70
2023/09/24 02:16:52;;;;;;;2.30;1.83;;;9.50;99.90;;;;;;5054151;28;20187;-70
2023/09/24 02:19:17;;;;;;;1.77;1.43;;;9.60;99.90;;;;;;5035911;28;20204;-70
2023/09/24 02:21:43;;;;;;;2.60;1.70;;;9.50;99.90;;;;;;5053725;28;20316;-70
2023/09/24 02:24:10;;;;;;;2.03;1.30;;;9.40;99.90;;;;;;5053426;28;20213;-70
2023/09/24 02:26:35;;;;;;;4.80;1.70;;;9.40;99.90;;;;;;5053688;28;20183;-70
2023/09/24 02:29:01;;;;;;;1.90;1.40;;;9.40;99.90;;;;;;5035874;28;20433;-70
2023/09/24 02:31:27;;;;;;;4.13;1.70;;;9.50;99.90;;;;;;5053636;28;20550;-70
2023/09/24 02:33:52;;;;;;;8.53;1.27;;;9.40;99.90;;;;;;5052173;28;20191;-70
2023/09/24 02:36:18;;;;;;;2.23;1.43;;;9.50;99.90;;;;;;5053566;28;20197;-70
2023/09/24 02:38:44;;;;;;;3.97;1.57;;;9.50;99.90;;;;;;5035498;28;20186;-70
2023/09/24 02:41:11;;;;;;;2.17;1.20;;;9.60;99.90;;;;;;5052401;28;20299;-70
2023/09/24 02:43:37;;;;;;;5.07;1.70;;;9.60;99.90;;;;;;5053233;28;20424;-70
2023/09/24 02:46:03;;;;;;;3.73;1.70;;;9.70;99.90;;;;;;5053463;28;20426;-70
2023/09/24 02:48:29;;;;;;;2.80;1.40;;;9.60;99.90;;;;;;5053365;28;20428;-70
2023/09/24 02:50:54;;;;;;;3.10;1.63;;;9.50;99.90;;;;;;5053321;28;20424;-70
2023/09/24 02:53:20;;;;;;;1.93;1.30;;;9.40;99.90;;;;;;5035334;28;20198;-70
2023/09/24 02:55:46;;;;;;;2.80;1.50;;;9.50;99.90;;;;;;5051842;28;20229;-70
2023/09/24 02:58:13;;;;;;;1.23;1.13;;;9.60;99.90;;;;;;5051805;28;20896;-70
2023/09/24 03:00:41;;;;;;;2.33;1.40;;;9.50;99.90;;;;;;5053005;28;20691;-70
2023/09/24 03:03:09;;;;;;;1.77;1.30;;;9.50;99.90;;;;;;5051953;28;20433;-70
2023/09/24 03:05:35;;;;;;;1.90;1.30;;;9.50;99.90;;;;;;5053419;28;20783;-70
2023/09/24 03:08:03;;;;;;;2.10;1.20;;;9.50;99.90;;;;;;5052977;28;20499;-70
2023/09/24 03:10:35;;;;;;;3.00;1.50;;;9.40;99.90;;;;;;5052933;28;20424;-70
2023/09/24 03:13:04;;;;;;;1.20;0.90;;;9.40;99.90;;;;;;5052806;28;20779;-70
2023/09/24 03:15:30;;;;;;;2.20;1.47;;;9.30;99.90;;;;;;5052736;28;20547;-70
2023/09/24 03:17:56;;;;;;;3.13;1.53;;;9.30;99.90;;;;;;5052809;28;20411;-70
2023/09/24 03:20:22;;;;;;;1.30;1.20;;;9.30;99.90;;;;;;5051490;28;20182;-70
2023/09/24 03:22:56;;;;;;;1.40;1.30;;;9.40;99.90;;;;;;5051274;28;20471;-70
2023/09/24 03:25:24;;;;;;;3.57;1.53;;;9.40;99.90;;;;;;5052447;28;20458;-70
2023/09/24 03:28:03;;;;;;;4.73;1.73;;;9.40;99.90;;;;;;5051284;28;20431;-70
2023/09/24 03:30:29;;;;;;;1.73;1.43;;;9.40;99.90;;;;;;5052596;28;20838;-70
2023/09/24 03:32:55;;;;;;;2.07;1.50;;;9.30;99.90;;;;;;5052478;28;20751;-70
2023/09/24 03:35:23;;;;;;;1.67;1.30;;;9.30;99.90;;;;;;5051633;28;20462;-70
2023/09/24 03:37:50;;;;;;;2.90;1.70;;;9.40;99.90;;;;;;5034805;28;20461;-70
2023/09/24 03:40:20;;;;;;;4.27;1.03;;;9.30;99.90;;;;;;5052290;28;20510;-70
2023/09/24 03:42:47;;;;;;;2.70;1.30;;;9.20;99.90;;;;;;5052264;28;20491;-70
2023/09/24 03:45:14;;;;;;;3.73;1.27;;;9.20;99.90;;;;;;5052152;28;20464;-71
2023/09/24 03:47:41;;;;;;;8.27;1.40;;;9.20;99.90;;;;;;5052206;28;20507;-70
2023/09/24 03:50:13;;;;;;;3.83;1.40;;;9.20;99.90;;;;;;5052174;28;20883;-70
2023/09/24 03:52:43;;;;;;;4.50;1.73;;;9.20;99.90;;;;;;5052098;28;20977;-70
2023/09/24 03:55:09;;;;;;;2.37;1.50;;;9.10;99.90;;;;;;5052016;28;20434;-70
2023/09/24 03:57:35;;;;;;;2.03;1.40;;;9.10;99.90;;;;;;5051908;28;20810;-70
2023/09/24 04:00:00;;;;;;;3.90;1.60;;;9.10;99.90;;;;;;5051953;28;20470;-70
2023/09/24 04:02:29;;;;;;;4.97;1.20;;;9.10;99.90;;;;;;5051850;28;20470;-70
2023/09/24 04:04:55;;;;;;;3.00;1.83;;;9.20;99.90;;;;;;5050531;28;20209;-70
2023/09/24 04:07:20;;;;;;;3.70;1.30;;;9.10;99.90;;;;;;5051787;28;20423;-70
2023/09/24 04:09:50;;;;;;;3.33;0.93;;;9.00;99.90;;;;;;5034160;28;20192;-70
2023/09/24 04:12:15;;;;;;;2.33;1.53;;;9.00;99.90;;;;;;5051705;28;20471;-70
2023/09/24 04:14:41;;;;;;;2.10;1.40;;;8.90;99.90;;;;;;5051899;28;20487;-70
2023/09/24 04:17:07;;;;;;;2.30;1.40;;;8.90;99.90;;;;;;5051771;28;20213;-70
2023/09/24 04:19:33;;;;;;;2.53;1.30;;;9.00;99.90;;;;;;5050423;28;20566;-70
2023/09/24 04:21:58;;;;;;;4.53;1.40;;;9.00;99.90;;;;;;5051500;28;20243;-70
2023/09/24 04:24:24;;;;;;;1.87;1.67;;;9.10;99.90;;;;;;5051529;28;20475;-70
2023/09/24 04:26:54;;;;;;;2.27;1.27;;;9.10;99.90;;;;;;5051532;28;20183;-70
2023/09/24 04:29:20;;;;;;;2.33;1.40;;;9.10;99.90;;;;;;5051597;28;20424;-70
2023/09/24 04:31:46;;;;;;;3.80;1.60;;;9.10;99.90;;;;;;5051469;28;20909;-70
2023/09/24 04:34:12;;;;;;;2.37;1.30;;;9.10;99.90;;;;;;5051323;28;20681;-70
2023/09/24 04:36:42;;;;;;;3.17;1.70;;;9.10;99.90;;;;;;5051437;28;20187;-70
2023/09/24 04:39:10;;;;;;;3.57;1.70;;;9.10;99.90;;;;;;5050013;28;20455;-70
2023/09/24 04:41:42;;;;;;;4.73;1.10;;;9.00;99.90;;;;;;5051269;28;20466;-70
2023/09/24 04:44:08;;;;;;;2.70;1.20;;;9.00;99.90;;;;;;5049918;28;20458;-70
2023/09/24 04:46:35;;;;;;;1.30;1.20;;;9.00;99.90;;;;;;5051236;28;20419;-70
2023/09/24 04:49:04;;;;;;;4.43;1.80;;;8.90;99.90;;;;;;5049957;28;20415;-70
2023/09/24 04:51:32;;;;;;;6.10;1.70;;;8.90;99.90;;;;;;5051174;28;20428;-70
2023/09/24 04:53:59;;;;;;;3.43;1.10;;;8.80;99.90;;;;;;5049797;28;20459;-70
2023/09/24 04:56:24;;;;;;;1.53;1.30;;;8.80;99.90;;;;;;5049879;28;20542;-70
2023/09/24 04:58:50;;;;;;;2.67;1.20;;;8.80;99.90;;;;;;5049907;28;20575;-70
2023/09/24 05:01:16;;;;;;;5.60;1.67;;;8.80;99.90;;;;;;5051044;28;20208;-71
2023/09/24 05:03:42;;;;;;;1.63;1.23;;;8.80;99.90;;;;;;5051031;28;20181;-70
2023/09/24 05:06:08;;;;;;;1.50;1.40;;;8.90;99.90;;;;;;5049915;28;20188;-70
2023/09/24 05:08:34;;;;;;;2.03;1.30;;;8.80;99.90;;;;;;5051176;28;20415;-70
2023/09/24 05:11:00;;;;;;;5.17;1.37;;;8.70;99.90;;;;;;5051061;28;20426;-70
2023/09/24 05:13:26;;;;;;;2.00;1.40;;;8.70;99.90;;;;;;5051074;28;20450;-70
2023/09/24 05:15:54;;;;;;;1.80;1.10;;;8.70;99.90;;;;;;5050986;28;20958;-70
2023/09/24 05:18:23;;;;;;;2.97;1.47;;;8.60;99.90;;;;;;5050977;28;20179;-70
2023/09/24 05:20:48;;;;;;;5.73;2.47;;;8.60;99.90;;;;;;5050903;28;20418;-70
2023/09/24 05:23:14;;;;;;;3.60;1.50;;;8.60;99.90;;;;;;5049770;28;20417;-70
2023/09/24 05:25:40;;;;;;;4.00;1.20;;;8.70;99.90;;;;;;5050870;28;20238;-70
2023/09/24 05:28:06;;;;;;;2.93;1.30;;;8.70;99.90;;;;;;5033180;28;20210;-70
2023/09/24 05:30:32;;;;;;;1.80;1.50;;;8.70;99.90;;;;;;5049552;28;20423;-70
2023/09/24 05:32:57;;;;;;;6.73;1.57;;;8.70;99.90;;;;;;5050835;28;20186;-70
2023/09/24 05:35:23;;;;;;;2.80;1.57;;;8.70;99.90;;;;;;5050754;28;20568;-70
2023/09/24 05:37:49;;;;;;;3.33;1.47;;;8.60;99.90;;;;;;5050747;28;20226;-70
2023/09/24 05:40:16;;;;;;;2.53;1.40;;;8.60;99.90;;;;;;5050785;28;20435;-70
2023/09/24 05:42:41;;;;;;;1.60;1.40;;;8.60;99.90;;;;;;5049324;28;20528;-70
2023/09/24 05:45:08;;;;;;;7.43;1.73;;;8.50;99.90;;;;;;5050626;28;20436;-70
2023/09/24 05:47:33;;;;;;;2.40;1.53;;;8.60;99.90;;;;;;5050707;28;20213;-70
2023/09/24 05:49:59;;;;;;;1.50;1.40;;;8.60;99.90;;;;;;5050708;28;20477;-70
2023/09/24 05:52:25;;;;;;;2.60;2.40;;;8.60;99.90;;;;;;5049448;28;20181;-71
2023/09/24 05:54:51;;;;;;;2.10;1.70;;;8.60;99.90;;;;;;5050587;28;20965;-70
2023/09/24 05:57:17;;;;;;;1.80;1.30;;;8.60;99.90;;;;;;5050559;28;20446;-70
2023/09/24 05:59:43;;;;;;;1.90;1.20;;;8.60;99.90;;;;;;5051516;28;20185;-71
2023/09/24 06:02:09;;;;;;;5.97;1.63;;;8.90;99.90;;;;;;5054160;28;20470;-70
2023/09/24 06:04:34;;;;;;;2.50;1.50;;;9.40;99.90;;;;;;5054052;28;20443;-71
2023/09/24 06:07:00;;;;;;;1.30;1.20;;;10.00;99.90;;;;;;5052763;28;20182;-71
2023/09/24 06:09:31;;;;;;;3.37;1.47;;;10.50;99.90;;;;;;5052843;28;20247;-71
2023/09/24 06:11:57;;;;;;;3.63;1.60;;;11.10;99.90;;;;;;5052697;28;20187;-71
2023/09/24 06:14:22;;;;;;;3.20;1.30;;;11.60;99.90;;;;;;5052656;28;20943;-70
2023/09/24 06:16:48;;;;;;;5.67;1.80;;;12.00;99.90;;;;;;5052694;28;20192;-70
2023/09/24 06:19:14;;;;;;;1.83;1.27;;;12.10;99.90;;;;;;5053860;28;20198;-70
2023/09/24 06:21:39;;;;;;;2.43;1.23;;;12.10;99.90;;;;;;5052513;28;20242;-70
2023/09/24 06:24:06;;;;;;;7.33;1.90;;;12.00;99.90;;;;;;5052654;28;20234;-70
2023/09/24 06:26:32;;;;;;;2.07;1.47;;;11.70;99.90;;;;;;5052607;28;20684;-70
2023/09/24 06:28:57;;;;;;;1.60;1.40;;;11.40;99.90;;;;;;5053765;28;20426;-70
2023/09/24 06:31:23;;;;;;;6.30;1.73;;;11.10;99.90;;;;;;5053602;28;20195;-70
2023/09/24 06:33:49;;;;;;;1.90;1.60;;;11.00;99.90;;;;;;5052445;28;20195;-70
2023/09/24 06:36:16;;;;;;;2.97;1.90;;;10.90;99.90;;;;;;5053601;28;20275;-70
2023/09/24 06:38:41;;;;;;;1.70;1.60;;;10.90;99.90;;;;;;5052229;28;20200;-70
2023/09/24 06:41:07;;;;;;;3.53;1.70;;;10.80;99.90;;;;;;5053446;28;20477;-70
2023/09/24 06:43:33;;;;;;;2.20;2.00;;;10.70;99.90;;;;;;5053514;28;20217;-70
2023/09/24 06:46:05;;;;;;;2.20;1.60;;;10.50;99.90;;;;;;5051970;28;20212;-70
2023/09/24 06:48:31;;;;;;;12.33;2.47;;;10.40;99.90;;;;;;5052068;28;20512;-70
2023/09/24 06:51:06;;;;;;;4.10;2.17;;;10.30;99.90;;;;;;5053296;28;20509;-70
2023/09/24 06:53:32;;;;;;;3.83;2.37;;;10.40;99.90;;;;;;5053638;28;20975;-70
2023/09/24 06:55:57;;;;;;;1.93;1.67;;;10.50;99.90;;;;;;5051833;28;20470;-70
2023/09/24 06:58:23;;;;;;;5.30;2.07;;;10.50;99.90;;;;;;5051965;28;20225;-70
2023/09/24 07:00:48;;;;;;;2.30;2.07;;;10.50;99.90;;;;;;5053106;28;20195;-70
2023/09/24 07:03:14;;;;;;;2.50;2.10;;;10.50;99.90;;;;;;5053141;28;20642;-70
2023/09/24 07:05:40;;;;;;;3.90;2.03;;;10.60;99.90;;;;;;5051705;28;20204;-70
2023/09/24 07:08:05;;;;;;;4.97;2.00;;;10.80;99.90;;;;;;5051769;28;20183;-70
2023/09/24 07:10:31;;;;;;;2.80;1.47;;;10.90;99.90;;;;;;5052189;28;20912;-70
2023/09/24 07:12:57;;;;;;;3.80;1.90;;;11.00;99.90;;;;;;5052946;28;20198;-70
2023/09/24 07:15:22;;;;;;;6.53;2.03;;;11.00;99.90;;;;;;5052966;28;20270;-70
2023/09/24 07:17:48;;;;;;;3.93;2.20;;;11.10;99.90;;;;;;5052892;28;20175;-70
2023/09/24 07:20:14;;;;;;;4.40;2.67;;;11.10;99.90;;;;;;5052777;28;20251;-70
2023/09/24 07:22:40;;;;;;;1.80;1.70;;;11.20;99.90;;;;;;5052626;28;20214;-70
2023/09/24 07:25:06;;;;;;;2.60;2.40;;;11.20;99.90;;;;;;5052709;28;20946;-70
2023/09/24 07:27:32;;;;;;;3.23;2.47;;;11.40;99.90;;;;;;5052654;28;20192;-70
2023/09/24 07:29:58;;;;;;;4.50;2.43;;;11.40;99.90;;;;;;5034586;28;20457;-70
2023/09/24 07:32:24;;;;;;;3.43;2.27;;;11.50;99.90;;;;;;5052514;28;20609;-70
2023/09/24 07:34:49;;;;;;;5.00;2.60;;;11.80;99.90;;;;;;5051253;28;20445;-70
2023/09/24 07:37:15;;;;;;;4.60;2.53;;;11.90;99.90;;;;;;5052389;28;20195;-70
2023/09/24 07:39:41;;;;;;;11.37;2.37;;;12.00;99.90;;;;;;5052444;28;20643;-70
2023/09/24 07:42:07;;;;;;;5.70;2.80;;;11.90;99.90;;;;;;5052184;28;20504;-70
2023/09/24 07:44:33;;;;;;;5.70;2.70;;;11.90;99.90;;;;;;5052139;28;20460;-70
2023/09/24 07:46:59;;;;;;;3.50;2.13;;;11.90;99.90;;;;;;5034383;28;20190;-70
2023/09/24 07:49:24;;;;;;;2.77;2.07;;;11.90;99.90;;;;;;5050820;28;20190;-70
2023/09/24 07:51:50;;;;;;;4.20;2.83;;;12.00;99.90;;;;;;5052176;28;20479;-70
2023/09/24 07:54:17;;;;;;;4.50;2.47;;;12.10;99.90;;;;;;5052028;28;20200;-70
2023/09/24 07:56:43;;;;;;;4.27;2.23;;;12.30;99.90;;;;;;5051926;28;20199;-70
2023/09/24 07:59:10;;;;;;;2.63;1.97;;;12.30;99.90;;;;;;5051995;28;20414;-70
2023/09/24 08:01:35;;;;;;;2.40;2.20;;;12.50;99.90;;;;;;5050627;28;20339;-70
2023/09/24 08:04:01;;;;;;;5.53;2.40;;;12.60;99.90;;;;;;5050629;28;20877;-70
2023/09/24 08:06:28;;;;;;;6.50;2.40;;;12.80;99.90;;;;;;5051953;28;20183;-70
2023/09/24 08:08:58;;;;;;;4.80;2.70;;;12.90;99.90;;;;;;5052168;28;20183;-70
2023/09/24 08:11:23;;;;;;;4.47;2.63;;;13.00;99.90;;;;;;5051750;28;20421;-70
2023/09/24 08:13:50;;;;;;;3.97;1.87;;;13.10;99.90;;;;;;5051707;28;20432;-70
2023/09/24 08:16:15;;;;;;;2.60;1.70;;;13.10;99.90;;;;;;5051843;28;20195;-70
2023/09/24 08:18:41;;;;;;;5.23;2.03;;;13.20;99.90;;;;;;5051696;28;20424;-70
2023/09/24 08:21:09;;;;;;;5.27;2.00;;;13.40;99.90;;;;;;5051409;28;20582;-70
2023/09/24 08:23:35;;;;;;;2.23;1.43;;;13.50;99.90;;;;;;5051482;28;20184;-70
2023/09/24 08:26:00;;;;;;;4.03;2.17;;;13.60;99.90;;;;;;5051506;28;20442;-70
2023/09/24 08:28:26;;;;;;;4.23;1.57;;;13.70;99.90;;;;;;5050328;28;20184;-70
2023/09/24 08:30:52;;;;;;;3.20;1.50;;;13.70;99.90;;;;;;5050253;28;20191;-70
2023/09/24 08:33:17;;;;;;;3.63;1.57;;;13.90;99.90;;;;;;5050244;28;20547;-70
2023/09/24 08:35:45;;;;;;;14.17;2.67;;;14.00;99.90;;;;;;5051372;28;20550;-70
2023/09/24 08:38:13;;;;;;;2.10;1.53;;;14.10;99.90;;;;;;5051520;28;20188;-70
2023/09/24 08:40:39;;;;;;;6.00;1.97;;;14.20;99.90;;;;;;5051436;28;20422;-70
2023/09/24 08:43:14;;;;;;;4.20;2.00;;;14.30;99.90;;;;;;5051257;28;20558;-71
2023/09/24 08:45:41;;;;;;;3.10;1.67;;;14.40;99.90;;;;;;5051359;28;20477;-70
2023/09/24 08:48:09;;;;;;;2.73;1.43;;;14.60;99.90;;;;;;5051428;28;20424;-70
2023/09/24 08:50:39;;;;;;;4.03;1.87;;;14.70;99.90;;;;;;5051204;28;20427;-70
2023/09/24 08:53:11;;;;;;;2.40;1.60;;;14.90;99.90;;;;;;5051277;28;20496;-70
2023/09/24 08:55:40;;;;;;;2.67;1.60;;;15.10;99.90;;;;;;5049837;28;20443;-70
2023/09/24 08:58:07;;;;;;;2.70;1.87;;;15.10;99.90;;;;;;5051265;28;20428;-70
2023/09/24 09:00:33;;;;;;;3.93;2.03;;;15.30;99.90;;;;;;5033319;28;20441;-70
2023/09/24 09:03:03;;;;;;;3.50;1.50;;;15.40;99.90;;;;;;5051002;28;20848;-70
2023/09/24 09:05:33;;;;;;;2.13;1.47;;;15.60;99.90;;;;;;5051338;28;20959;-71
2023/09/24 09:08:01;;;;;;;3.53;1.83;;;15.80;99.90;;;;;;5051104;28;20430;-71
2023/09/24 09:10:29;;;;;;;4.60;2.10;;;16.10;99.90;;;;;;5051103;28;20432;-71
2023/09/24 09:13:04;;;;;;;3.37;1.50;;;16.30;99.90;;;;;;5033409;28;20787;-70
2023/09/24 09:15:30;;;;;;;3.10;1.53;;;16.80;99.90;;;;;;5051029;28;20474;-70
2023/09/24 09:17:56;;;;;;;2.37;1.37;;;17.10;99.90;;;;;;5051040;28;20417;-70
2023/09/24 09:20:42;;;;;;;5.87;2.13;;;17.40;99.90;;;;;;5050965;28;20417;-70
2023/09/24 09:23:12;;;;;;;3.00;1.20;;;17.70;99.90;;;;;;5050872;28;20212;-71
2023/09/24 09:26:04;;;;;;;2.07;1.10;;;18.10;99.90;;;;;;5049778;28;20572;-71
2023/09/24 09:28:34;;;;;;;2.03;1.40;;;18.80;99.90;;;;;;5050567;28;20437;-70
2023/09/24 09:31:07;;;;;;;2.17;1.40;;;19.20;99.90;;;;;;5049701;28;20789;-71
2023/09/24 09:33:39;;;;;;;3.63;2.70;;;19.70;99.90;;;;;;5051255;28;20925;-71
2023/09/24 09:36:27;;;;;;;2.93;1.47;;;20.10;99.90;;;;;;5054783;28;20418;-71
2023/09/24 09:38:54;;;;;;;4.83;1.70;;;20.30;99.90;;;;;;5054789;28;20410;-71
2023/09/24 09:41:23;;;;;;;5.67;1.87;;;20.60;99.90;;;;;;5054497;28;20462;-71
2023/09/24 09:43:50;;;;;;;3.87;1.20;;;20.60;99.90;;;;;;5054516;28;20421;-71
2023/09/24 09:46:21;;;;;;;4.30;3.20;;;20.90;99.90;;;;;;5054561;28;20513;-71
2023/09/24 09:49:02;;;;;;;7.10;2.23;;;20.90;99.90;;;;;;5054574;28;20415;-71
2023/09/24 09:51:36;;;;;;;6.07;2.27;;;20.80;99.90;;;;;;5054389;28;20854;-71
2023/09/24 09:54:08;;;;;;;3.20;2.43;;;21.10;99.90;;;;;;5053413;28;20525;-71
2023/09/24 09:56:36;;;;;;;7.73;2.33;;;21.20;99.90;;;;;;5052978;28;20483;-71
2023/09/24 09:59:06;;;;;;;15.00;8.00;;;21.20;99.90;;;;;;5054326;28;20425;-72
2023/09/24 10:01:32;;;;;;;8.13;4.83;;;21.10;99.90;;;;;;5054128;28;20462;-71
2023/09/24 10:04:03;;;;;;;8.10;5.80;;;21.40;99.90;;;;;;5054167;28;20434;-72
2023/09/24 10:06:34;;;;;;;6.33;3.20;;;22.00;99.90;;;;;;5052839;28;20426;-72
2023/09/24 10:08:59;;;;;;;7.83;4.60;;;22.10;99.90;;;;;;5054274;28;20515;-72
2023/09/24 10:11:31;;;;;;;3.73;2.50;;;22.30;99.90;;;;;;5054245;28;20508;-72
2023/09/24 10:13:57;;;;;;;6.97;2.10;;;21.50;99.90;;;;;;5054061;28;20267;-72
2023/09/24 10:16:25;;;;;;;3.37;2.17;;;21.40;99.90;;;;;;5053962;28;20412;-72
2023/09/24 10:18:55;;;;;;;4.53;1.80;;;21.90;99.90;;;;;;5054028;28;20426;-71
2023/09/24 10:21:37;;;;;;;3.33;1.60;;;21.90;99.90;;;;;;5053852;28;20464;-71
2023/09/24 10:24:14;;;;;;;8.63;1.83;;;22.80;99.90;;;;;;5052435;28;20877;-72
2023/09/24 10:26:49;;;;;;;2.60;1.60;;;22.50;99.90;;;;;;5053748;28;20847;-72
2023/09/24 10:29:18;;;;;;;2.33;1.80;;;23.20;99.90;;;;;;5054212;28;20410;-72
2023/09/24 10:32:06;;;;;;;2.90;1.37;;;23.30;98.60;;;;;;5053765;28;20494;-72
2023/09/24 10:34:59;;;;;;;1.93;1.47;;;23.10;98.20;;;;;;5052202;28;20442;-72
2023/09/24 10:37:37;;;;;;;4.13;1.47;;;23.10;97.50;;;;;;5052288;28;20426;-72
2023/09/24 10:40:04;;;;;;;3.10;1.20;;;23.50;98.20;;;;;;5053788;28;20422;-71
2023/09/24 10:42:32;;;;;;;3.60;1.83;;;23.70;97.20;;;;;;5052218;28;20595;-72
2023/09/24 10:45:07;;;;;;;2.70;1.43;;;23.50;95.90;;;;;;5051899;28;20449;-73
2023/09/24 10:47:35;;;;;;;3.67;1.83;;;23.20;95.80;;;;;;5053372;28;20419;-72
2023/09/24 10:50:03;;;;;;;3.47;1.67;;;23.10;97.90;;;;;;5052141;28;20795;-72
2023/09/24 10:52:29;;;;;;;2.00;1.20;;;23.20;95.90;;;;;;5052080;28;20519;-72
2023/09/24 10:54:55;;;;;;;4.83;1.83;;;23.40;95.40;;;;;;5052098;28;20550;-72
2023/09/24 10:57:24;;;;;;;5.17;1.97;;;23.30;94.90;;;;;;5053082;28;20997;-72
2023/09/24 10:59:51;;;;;;;2.00;1.33;;;22.60;95.90;;;;;;5053223;28;20419;-72
2023/09/24 11:02:17;;;;;;;3.53;1.90;;;21.70;97.00;;;;;;5053047;28;20476;-72
2023/09/24 11:04:43;;;;;;;2.63;1.60;;;21.10;98.00;;;;;;5052982;28;20949;-72
2023/09/24 11:07:12;;;;;;;3.43;1.40;;;20.50;98.90;;;;;;5051701;28;20503;-72
2023/09/24 11:09:38;;;;;;;4.87;2.30;;;20.10;99.90;;;;;;5053078;28;20279;-72
2023/09/24 11:12:10;;;;;;;5.00;2.07;;;19.60;99.70;;;;;;5052960;28;20980;-72
2023/09/24 11:14:35;;;;;;;4.80;1.50;;;19.80;99.60;;;;;;5052828;28;20206;-72
2023/09/24 11:17:01;;;;;;;4.50;2.57;;;20.50;99.90;;;;;;5052877;28;20529;-72
2023/09/24 11:19:47;;;;;;;1.73;1.30;;;20.40;99.10;;;;;;5034940;28;20211;-72
2023/09/24 11:22:23;;;;;;;2.60;1.40;;;20.00;99.90;;;;;;5051449;28;20237;-71
2023/09/24 11:25:11;;;;;;;3.27;1.27;;;19.80;99.90;;;;;;5052722;28;20426;-71
2023/09/24 11:27:48;;;;;;;4.60;1.10;;;20.20;99.90;;;;;;5052724;28;20399;-72
2023/09/24 11:30:15;;;;;;;5.10;1.43;;;20.70;98.40;;;;;;5052640;28;20421;-72
2023/09/24 11:32:51;;;;;;;3.73;1.30;;;21.30;97.70;;;;;;5051168;28;20419;-72
2023/09/24 11:35:19;;;;;;;3.70;1.97;;;21.40;95.70;;;;;;5034590;28;20446;-72
2023/09/24 11:37:59;;;;;;;3.30;1.50;;;21.40;95.60;;;;;;5051311;28;20767;-72
2023/09/24 11:40:29;;;;;;;3.97;1.80;;;21.20;96.70;;;;;;5052318;28;20414;-72
2023/09/24 11:42:58;;;;;;;2.70;1.33;;;20.80;95.60;;;;;;5052238;28;20465;-72
2023/09/24 11:45:43;;;;;;;2.07;1.40;;;21.20;96.80;;;;;;5052224;28;20970;-72
2023/09/24 11:48:11;;;;;;;1.83;1.20;;;21.50;96.50;;;;;;5052220;28;20406;-72
2023/09/24 11:50:39;;;;;;;7.60;1.63;;;21.70;96.20;;;;;;5052262;28;20417;-72
2023/09/24 11:53:05;;;;;;;2.50;1.33;;;21.70;95.30;;;;;;5051132;28;20424;-72
2023/09/24 11:55:31;;;;;;;2.10;1.50;;;21.90;93.90;;;;;;5051920;28;20445;-72
2023/09/24 11:57:57;;;;;;;3.30;1.57;;;22.30;95.40;;;;;;5050237;28;20423;-72
2023/09/24 12:00:23;;;;;;;7.50;1.83;;;22.30;94.50;;;;;;5050767;28;20465;-72
2023/09/24 12:02:49;;;;;;;2.13;1.20;;;22.40;95.60;;;;;;5050603;28;20205;-72
2023/09/24 12:05:15;;;;;;;4.60;2.07;;;22.50;95.60;;;;;;5050686;28;20850;-72
2023/09/24 12:07:41;;;;;;;3.73;1.63;;;22.40;95.00;;;;;;5051959;28;20255;-73
2023/09/24 12:10:08;;;;;;;3.40;1.40;;;22.40;94.80;;;;;;5050542;28;20426;-72
2023/09/24 12:12:33;;;;;;;3.27;1.50;;;22.30;94.60;;;;;;5051832;28;20415;-72
2023/09/24 12:14:59;;;;;;;8.03;1.70;;;22.40;94.70;;;;;;5050272;28;20979;-72
2023/09/24 12:17:25;;;;;;;3.27;1.40;;;22.40;94.60;;;;;;5050504;28;20565;-72
2023/09/24 12:19:52;;;;;;;3.83;2.30;;;22.40;94.50;;;;;;5051764;28;20181;-72
2023/09/24 12:22:18;;;;;;;2.40;1.20;;;22.40;94.90;;;;;;5051607;28;20696;-72
2023/09/24 12:24:44;;;;;;;2.13;1.30;;;22.30;93.70;;;;;;5051574;28;20434;-72
2023/09/24 12:27:09;;;;;;;4.80;1.17;;;22.40;93.40;;;;;;5051661;28;20426;-72
2023/09/24 12:29:35;;;;;;;8.83;1.23;;;22.60;93.80;;;;;;5050285;28;20206;-72
2023/09/24 12:32:01;;;;;;;1.80;1.30;;;22.90;93.70;;;;;;5051652;28;20223;-72
2023/09/24 12:34:26;;;;;;;2.10;1.50;;;22.80;94.00;;;;;;5033808;28;20262;-72
2023/09/24 12:36:52;;;;;;;5.03;1.53;;;22.60;92.80;;;;;;5050234;28;20188;-72
2023/09/24 12:39:20;;;;;;;2.20;1.10;;;22.50;94.30;;;;;;5050010;28;20194;-72
2023/09/24 12:41:47;;;;;;;3.53;1.37;;;22.50;93.60;;;;;;5051282;28;20231;-72
2023/09/24 12:44:12;;;;;;;4.37;1.60;;;22.70;93.10;;;;;;5050007;28;20553;-72
2023/09/24 12:46:38;;;;;;;2.27;1.60;;;22.70;93.10;;;;;;5050153;28;20591;-72
2023/09/24 12:49:04;;;;;;;3.53;1.57;;;22.60;93.50;;;;;;5050001;28;20176;-72
2023/09/24 12:51:30;;;;;;;4.27;1.40;;;22.70;93.10;;;;;;5050034;28;20685;-71
2023/09/24 12:53:55;;;;;;;2.30;1.67;;;22.40;93.10;;;;;;5051281;28;20418;-73